sensor_id;sensor_type;location;lat;lon;timestamp;P1;durP1;ratioP1;P2;durP2;ratioP2
40072;SDS011;25774;52.256;9.356;2023-10-19T00:01:57;3.65;;;2.10;;
40072;SDS011;25774;52.256;9.356;2023-10-19T00:04:23;3.90;;;2.50;;
40072;SDS011;25774;52.256;9.356;2023-10-19T00:06:48;3.50;;;2.20;;
40072;SDS011;25774;52.256;9.356;2023-10-19T00:09:14;4.53;;;2.60;;
40072;SDS011;25774;52.256;9.356;2023-10-19T00:11:40;4.28;;;2.38;;
40072;SDS011;25774;52.256;9.356;2023-10-19T00:14:05;4.37;;;2.90;;
40072;SDS011;25774;52.256;9.356;2023-10-19T00:16:40;3.92;;;2.35;;
40072;SDS011;25774;52.256;9.356;2023-10-19T00:19:05;4.23;;;2.63;;
40072;SDS011;25774;52.256;9.356;2023-10-19T00:21:31;4.28;;;2.28;;
40072;SDS011;25774;52.256;9.356;2023-10-19T00:24:13;4.28;;;2.60;;
40072;SDS011;25774;52.256;9.356;2023-10-19T00:26:41;4.90;;;2.75;;
40072;SDS011;25774;52.256;9.356;2023-10-19T00:29:07;4.23;;;2.47;;
40072;SDS011;25774;52.256;9.356;2023-10-19T00:32:01;4.47;;;2.50;;
40072;SDS011;25774;52.256;9.356;2023-10-19T00:34:28;4.15;;;2.42;;
40072;SDS011;25774;52.256;9.356;2023-10-19T00:36:56;4.13;;;2.38;;
40072;SDS011;25774;52.256;9.356;2023-10-19T00:39:22;3.73;;;2.30;;
40072;SDS011;25774;52.256;9.356;2023-10-19T00:41:49;3.47;;;2.20;;
40072;SDS011;25774;52.256;9.356;2023-10-19T00:44:16;4.05;;;2.00;;
40072;SDS011;25774;52.256;9.356;2023-10-19T00:46:48;3.83;;;1.80;;
40072;SDS011;25774;52.256;9.356;2023-10-19T00:49:29;4.00;;;2.00;;
40072;SDS011;25774;52.256;9.356;2023-10-19T00:51:55;4.00;;;2.33;;
40072;SDS011;25774;52.256;9.356;2023-10-19T00:57:00;3.92;;;2.65;;
40072;SDS011;25774;52.256;9.356;2023-10-19T00:59:31;4.70;;;2.97;;
40072;SDS011;25774;52.256;9.356;2023-10-19T01:02:00;5.43;;;2.60;;
40072;SDS011;25774;52.256;9.356;2023-10-19T01:04:42;5.93;;;3.10;;
40072;SDS011;25774;52.256;9.356;2023-10-19T01:07:08;4.85;;;2.67;;
40072;SDS011;25774;52.256;9.356;2023-10-19T01:09:37;4.95;;;3.10;;
40072;SDS011;25774;52.256;9.356;2023-10-19T01:12:04;4.68;;;2.60;;
40072;SDS011;25774;52.256;9.356;2023-10-19T01:15:08;4.57;;;2.85;;
40072;SDS011;25774;52.256;9.356;2023-10-19T01:17:41;4.95;;;2.85;;
40072;SDS011;25774;52.256;9.356;2023-10-19T01:20:09;5.55;;;3.10;;
40072;SDS011;25774;52.256;9.356;2023-10-19T01:23:07;4.57;;;2.80;;
40072;SDS011;25774;52.256;9.356;2023-10-19T01:28:07;5.18;;;2.97;;
40072;SDS011;25774;52.256;9.356;2023-10-19T01:30:33;4.95;;;3.13;;
40072;SDS011;25774;52.256;9.356;2023-10-19T01:32:59;5.80;;;3.63;;
40072;SDS011;25774;52.256;9.356;2023-10-19T01:35:25;4.70;;;3.00;;
40072;SDS011;25774;52.256;9.356;2023-10-19T01:37:52;5.72;;;3.42;;
40072;SDS011;25774;52.256;9.356;2023-10-19T01:40:17;5.37;;;3.37;;
40072;SDS011;25774;52.256;9.356;2023-10-19T01:42:45;5.25;;;3.20;;
40072;SDS011;25774;52.256;9.356;2023-10-19T01:45:11;6.03;;;3.67;;
40072;SDS011;25774;52.256;9.356;2023-10-19T01:47:36;5.63;;;3.30;;
40072;SDS011;25774;52.256;9.356;2023-10-19T01:50:01;6.00;;;4.07;;
40072;SDS011;25774;52.256;9.356;2023-10-19T01:52:27;5.20;;;3.00;;
40072;SDS011;25774;52.256;9.356;2023-10-19T01:54:53;5.53;;;3.37;;
40072;SDS011;25774;52.256;9.356;2023-10-19T01:57:26;6.97;;;4.40;;
40072;SDS011;25774;52.256;9.356;2023-10-19T01:59:51;4.72;;;3.33;;
40072;SDS011;25774;52.256;9.356;2023-10-19T02:02:16;5.83;;;3.33;;
40072;SDS011;25774;52.256;9.356;2023-10-19T02:04:41;5.70;;;3.33;;
40072;SDS011;25774;52.256;9.356;2023-10-19T02:07:07;5.43;;;3.08;;
40072;SDS011;25774;52.256;9.356;2023-10-19T02:09:37;5.38;;;3.20;;
40072;SDS011;25774;52.256;9.356;2023-10-19T02:14:31;5.05;;;3.10;;
40072;SDS011;25774;52.256;9.356;2023-10-19T02:16:58;4.53;;;3.03;;
40072;SDS011;25774;52.256;9.356;2023-10-19T02:19:25;4.75;;;2.78;;
40072;SDS011;25774;52.256;9.356;2023-10-19T02:21:51;4.28;;;2.63;;
40072;SDS011;25774;52.256;9.356;2023-10-19T02:24:17;3.97;;;2.67;;
40072;SDS011;25774;52.256;9.356;2023-10-19T02:26:44;4.57;;;2.63;;
40072;SDS011;25774;52.256;9.356;2023-10-19T02:29:11;3.63;;;2.45;;
40072;SDS011;25774;52.256;9.356;2023-10-19T02:31:37;4.13;;;2.58;;
40072;SDS011;25774;52.256;9.356;2023-10-19T02:34:03;3.97;;;2.63;;
40072;SDS011;25774;52.256;9.356;2023-10-19T02:36:29;5.38;;;2.88;;
40072;SDS011;25774;52.256;9.356;2023-10-19T02:41:24;5.38;;;3.30;;
40072;SDS011;25774;52.256;9.356;2023-10-19T02:43:49;4.82;;;2.67;;
40072;SDS011;25774;52.256;9.356;2023-10-19T02:46:27;4.63;;;3.15;;
40072;SDS011;25774;52.256;9.356;2023-10-19T02:48:52;4.85;;;2.88;;
40072;SDS011;25774;52.256;9.356;2023-10-19T02:51:17;4.53;;;3.13;;
40072;SDS011;25774;52.256;9.356;2023-10-19T02:53:44;4.47;;;2.95;;
40072;SDS011;25774;52.256;9.356;2023-10-19T02:56:11;5.47;;;3.22;;
40072;SDS011;25774;52.256;9.356;2023-10-19T02:58:40;4.32;;;2.70;;
40072;SDS011;25774;52.256;9.356;2023-10-19T03:01:16;5.43;;;3.05;;
40072;SDS011;25774;52.256;9.356;2023-10-19T03:03:46;4.93;;;3.15;;
40072;SDS011;25774;52.256;9.356;2023-10-19T03:06:11;5.90;;;3.70;;
40072;SDS011;25774;52.256;9.356;2023-10-19T03:08:37;6.33;;;3.67;;
40072;SDS011;25774;52.256;9.356;2023-10-19T03:11:02;5.87;;;3.40;;
40072;SDS011;25774;52.256;9.356;2023-10-19T03:13:30;5.10;;;3.30;;
40072;SDS011;25774;52.256;9.356;2023-10-19T03:16:01;4.60;;;3.08;;
40072;SDS011;25774;52.256;9.356;2023-10-19T03:18:32;5.32;;;3.60;;
40072;SDS011;25774;52.256;9.356;2023-10-19T03:20:58;5.85;;;3.83;;
40072;SDS011;25774;52.256;9.356;2023-10-19T03:23:24;4.97;;;3.07;;
40072;SDS011;25774;52.256;9.356;2023-10-19T03:25:53;5.85;;;2.92;;
40072;SDS011;25774;52.256;9.356;2023-10-19T03:31:02;4.03;;;2.42;;
40072;SDS011;25774;52.256;9.356;2023-10-19T03:33:29;4.22;;;2.83;;
40072;SDS011;25774;52.256;9.356;2023-10-19T03:35:54;4.47;;;2.97;;
40072;SDS011;25774;52.256;9.356;2023-10-19T03:38:20;4.70;;;3.03;;
40072;SDS011;25774;52.256;9.356;2023-10-19T03:40:48;4.53;;;2.90;;
40072;SDS011;25774;52.256;9.356;2023-10-19T03:43:19;3.20;;;2.08;;
40072;SDS011;25774;52.256;9.356;2023-10-19T03:45:48;3.80;;;2.40;;
40072;SDS011;25774;52.256;9.356;2023-10-19T03:48:19;3.85;;;2.10;;
40072;SDS011;25774;52.256;9.356;2023-10-19T03:50:50;3.72;;;2.13;;
40072;SDS011;25774;52.256;9.356;2023-10-19T03:53:16;3.80;;;2.17;;
40072;SDS011;25774;52.256;9.356;2023-10-19T03:55:42;3.30;;;1.95;;
40072;SDS011;25774;52.256;9.356;2023-10-19T03:58:08;3.17;;;2.10;;
40072;SDS011;25774;52.256;9.356;2023-10-19T04:00:34;3.33;;;1.97;;
40072;SDS011;25774;52.256;9.356;2023-10-19T04:02:59;3.13;;;1.63;;
40072;SDS011;25774;52.256;9.356;2023-10-19T04:05:24;3.30;;;2.00;;
40072;SDS011;25774;52.256;9.356;2023-10-19T04:10:20;2.75;;;1.60;;
40072;SDS011;25774;52.256;9.356;2023-10-19T04:12:55;2.47;;;1.60;;
40072;SDS011;25774;52.256;9.356;2023-10-19T04:15:21;3.10;;;1.83;;
40072;SDS011;25774;52.256;9.356;2023-10-19T04:17:47;2.75;;;1.60;;
40072;SDS011;25774;52.256;9.356;2023-10-19T04:20:17;3.30;;;2.08;;
40072;SDS011;25774;52.256;9.356;2023-10-19T04:22:46;2.45;;;1.52;;
40072;SDS011;25774;52.256;9.356;2023-10-19T04:25:12;2.60;;;1.58;;
40072;SDS011;25774;52.256;9.356;2023-10-19T04:27:38;2.80;;;1.75;;
40072;SDS011;25774;52.256;9.356;2023-10-19T04:30:03;2.35;;;1.30;;
40072;SDS011;25774;52.256;9.356;2023-10-19T04:32:29;2.60;;;1.33;;
40072;SDS011;25774;52.256;9.356;2023-10-19T04:34:55;2.90;;;1.48;;
40072;SDS011;25774;52.256;9.356;2023-10-19T04:37:20;2.27;;;1.47;;
40072;SDS011;25774;52.256;9.356;2023-10-19T04:39:48;2.58;;;1.58;;
40072;SDS011;25774;52.256;9.356;2023-10-19T04:42:14;2.50;;;1.40;;
40072;SDS011;25774;52.256;9.356;2023-10-19T04:44:40;2.77;;;1.50;;
40072;SDS011;25774;52.256;9.356;2023-10-19T04:47:06;2.35;;;1.27;;
40072;SDS011;25774;52.256;9.356;2023-10-19T04:49:32;2.50;;;1.52;;
40072;SDS011;25774;52.256;9.356;2023-10-19T04:51:58;1.67;;;1.07;;
40072;SDS011;25774;52.256;9.356;2023-10-19T04:54:23;1.77;;;1.08;;
40072;SDS011;25774;52.256;9.356;2023-10-19T04:56:51;1.90;;;1.03;;
40072;SDS011;25774;52.256;9.356;2023-10-19T04:59:18;1.90;;;1.00;;
40072;SDS011;25774;52.256;9.356;2023-10-19T05:01:44;1.80;;;1.07;;
40072;SDS011;25774;52.256;9.356;2023-10-19T05:04:10;1.50;;;0.77;;
40072;SDS011;25774;52.256;9.356;2023-10-19T05:06:36;1.47;;;0.83;;
40072;SDS011;25774;52.256;9.356;2023-10-19T05:09:03;1.33;;;0.85;;
40072;SDS011;25774;52.256;9.356;2023-10-19T05:11:28;1.30;;;0.67;;
40072;SDS011;25774;52.256;9.356;2023-10-19T05:13:53;1.57;;;0.80;;
40072;SDS011;25774;52.256;9.356;2023-10-19T05:16:18;1.60;;;0.87;;
40072;SDS011;25774;52.256;9.356;2023-10-19T05:18:49;0.87;;;0.60;;
40072;SDS011;25774;52.256;9.356;2023-10-19T05:21:15;1.13;;;0.70;;
40072;SDS011;25774;52.256;9.356;2023-10-19T05:26:08;1.50;;;0.70;;
40072;SDS011;25774;52.256;9.356;2023-10-19T05:28:34;1.13;;;0.60;;
40072;SDS011;25774;52.256;9.356;2023-10-19T05:30:59;1.20;;;0.77;;
40072;SDS011;25774;52.256;9.356;2023-10-19T05:33:24;1.37;;;0.70;;
40072;SDS011;25774;52.256;9.356;2023-10-19T05:38:17;1.50;;;0.65;;
40072;SDS011;25774;52.256;9.356;2023-10-19T05:40:45;1.55;;;0.73;;
40072;SDS011;25774;52.256;9.356;2023-10-19T05:43:10;1.20;;;0.70;;
40072;SDS011;25774;52.256;9.356;2023-10-19T05:45:37;1.15;;;0.60;;
40072;SDS011;25774;52.256;9.356;2023-10-19T05:48:03;1.13;;;0.60;;
40072;SDS011;25774;52.256;9.356;2023-10-19T05:50:30;0.80;;;0.50;;
40072;SDS011;25774;52.256;9.356;2023-10-19T05:52:57;1.00;;;0.60;;
40072;SDS011;25774;52.256;9.356;2023-10-19T05:55:24;1.17;;;0.60;;
40072;SDS011;25774;52.256;9.356;2023-10-19T05:57:49;1.25;;;0.73;;
40072;SDS011;25774;52.256;9.356;2023-10-19T06:00:14;1.10;;;0.70;;
40072;SDS011;25774;52.256;9.356;2023-10-19T06:02:47;1.33;;;0.73;;
40072;SDS011;25774;52.256;9.356;2023-10-19T06:05:14;1.25;;;0.60;;
40072;SDS011;25774;52.256;9.356;2023-10-19T06:07:46;1.20;;;0.70;;
40072;SDS011;25774;52.256;9.356;2023-10-19T06:10:14;0.68;;;0.40;;
40072;SDS011;25774;52.256;9.356;2023-10-19T06:12:45;1.25;;;0.50;;
40072;SDS011;25774;52.256;9.356;2023-10-19T06:15:11;1.35;;;0.70;;
40072;SDS011;25774;52.256;9.356;2023-10-19T06:17:37;1.38;;;0.70;;
40072;SDS011;25774;52.256;9.356;2023-10-19T06:22:30;1.30;;;0.73;;
40072;SDS011;25774;52.256;9.356;2023-10-19T06:24:56;1.30;;;0.70;;
40072;SDS011;25774;52.256;9.356;2023-10-19T06:27:22;1.60;;;0.90;;
40072;SDS011;25774;52.256;9.356;2023-10-19T06:29:48;1.38;;;0.70;;
40072;SDS011;25774;52.256;9.356;2023-10-19T06:32:14;0.80;;;0.60;;
40072;SDS011;25774;52.256;9.356;2023-10-19T06:34:40;0.98;;;0.60;;
40072;SDS011;25774;52.256;9.356;2023-10-19T06:37:05;0.80;;;0.50;;
40072;SDS011;25774;52.256;9.356;2023-10-19T06:39:33;0.98;;;0.60;;
40072;SDS011;25774;52.256;9.356;2023-10-19T06:41:59;0.87;;;0.50;;
40072;SDS011;25774;52.256;9.356;2023-10-19T06:44:24;1.13;;;0.50;;
40072;SDS011;25774;52.256;9.356;2023-10-19T06:46:49;0.90;;;0.50;;
40072;SDS011;25774;52.256;9.356;2023-10-19T06:49:14;1.70;;;0.80;;
40072;SDS011;25774;52.256;9.356;2023-10-19T06:51:40;0.88;;;0.57;;
40072;SDS011;25774;52.256;9.356;2023-10-19T06:54:06;1.57;;;0.70;;
40072;SDS011;25774;52.256;9.356;2023-10-19T06:56:33;0.90;;;0.60;;
40072;SDS011;25774;52.256;9.356;2023-10-19T06:59:02;1.05;;;0.65;;
40072;SDS011;25774;52.256;9.356;2023-10-19T07:01:29;1.30;;;0.75;;
40072;SDS011;25774;52.256;9.356;2023-10-19T07:03:56;1.15;;;0.60;;
40072;SDS011;25774;52.256;9.356;2023-10-19T07:06:21;1.67;;;0.93;;
40072;SDS011;25774;52.256;9.356;2023-10-19T07:08:47;1.10;;;0.70;;
40072;SDS011;25774;52.256;9.356;2023-10-19T07:11:12;1.30;;;0.77;;
40072;SDS011;25774;52.256;9.356;2023-10-19T07:13:38;1.73;;;0.87;;
40072;SDS011;25774;52.256;9.356;2023-10-19T07:16:05;2.33;;;1.00;;
40072;SDS011;25774;52.256;9.356;2023-10-19T07:18:30;1.80;;;0.90;;
40072;SDS011;25774;52.256;9.356;2023-10-19T07:20:55;2.47;;;1.17;;
40072;SDS011;25774;52.256;9.356;2023-10-19T07:23:29;1.52;;;0.98;;
40072;SDS011;25774;52.256;9.356;2023-10-19T07:28:21;2.05;;;1.00;;
40072;SDS011;25774;52.256;9.356;2023-10-19T07:30:48;1.58;;;1.08;;
40072;SDS011;25774;52.256;9.356;2023-10-19T07:33:14;1.83;;;1.13;;
40072;SDS011;25774;52.256;9.356;2023-10-19T07:35:43;2.17;;;1.33;;
40072;SDS011;25774;52.256;9.356;2023-10-19T07:38:09;1.92;;;1.17;;
40072;SDS011;25774;52.256;9.356;2023-10-19T07:40:34;2.20;;;1.10;;
40072;SDS011;25774;52.256;9.356;2023-10-19T07:43:00;2.15;;;1.17;;
40072;SDS011;25774;52.256;9.356;2023-10-19T07:45:25;1.50;;;1.00;;
40072;SDS011;25774;52.256;9.356;2023-10-19T07:47:50;2.13;;;1.00;;
40072;SDS011;25774;52.256;9.356;2023-10-19T07:50:16;2.23;;;1.13;;
40072;SDS011;25774;52.256;9.356;2023-10-19T07:52:46;1.47;;;0.93;;
40072;SDS011;25774;52.256;9.356;2023-10-19T07:55:12;2.08;;;1.13;;
40072;SDS011;25774;52.256;9.356;2023-10-19T07:57:38;2.38;;;1.30;;
40072;SDS011;25774;52.256;9.356;2023-10-19T08:00:05;1.80;;;0.90;;
40072;SDS011;25774;52.256;9.356;2023-10-19T08:02:31;1.98;;;1.00;;
40072;SDS011;25774;52.256;9.356;2023-10-19T08:04:59;1.67;;;1.00;;
40072;SDS011;25774;52.256;9.356;2023-10-19T08:07:25;2.23;;;1.00;;
40072;SDS011;25774;52.256;9.356;2023-10-19T08:09:53;2.03;;;1.05;;
40072;SDS011;25774;52.256;9.356;2023-10-19T08:12:19;2.00;;;1.10;;
40072;SDS011;25774;52.256;9.356;2023-10-19T08:14:44;1.77;;;1.17;;
40072;SDS011;25774;52.256;9.356;2023-10-19T08:17:11;1.75;;;0.90;;
40072;SDS011;25774;52.256;9.356;2023-10-19T08:19:37;2.42;;;1.40;;
40072;SDS011;25774;52.256;9.356;2023-10-19T08:22:03;1.50;;;1.00;;
40072;SDS011;25774;52.256;9.356;2023-10-19T08:24:29;1.48;;;0.95;;
40072;SDS011;25774;52.256;9.356;2023-10-19T08:26:56;1.90;;;1.08;;
40072;SDS011;25774;52.256;9.356;2023-10-19T08:31:47;1.92;;;0.93;;
40072;SDS011;25774;52.256;9.356;2023-10-19T08:34:13;1.95;;;1.27;;
40072;SDS011;25774;52.256;9.356;2023-10-19T08:36:38;2.73;;;1.40;;
40072;SDS011;25774;52.256;9.356;2023-10-19T08:39:07;2.13;;;1.23;;
40072;SDS011;25774;52.256;9.356;2023-10-19T08:41:33;2.25;;;1.00;;
40072;SDS011;25774;52.256;9.356;2023-10-19T08:44:00;1.10;;;0.80;;
40072;SDS011;25774;52.256;9.356;2023-10-19T08:46:26;2.10;;;1.35;;
40072;SDS011;25774;52.256;9.356;2023-10-19T08:48:53;2.13;;;1.30;;
40072;SDS011;25774;52.256;9.356;2023-10-19T08:51:19;1.73;;;1.00;;
40072;SDS011;25774;52.256;9.356;2023-10-19T08:53:44;2.10;;;1.40;;
40072;SDS011;25774;52.256;9.356;2023-10-19T08:56:11;1.85;;;1.10;;
40072;SDS011;25774;52.256;9.356;2023-10-19T08:58:37;2.85;;;1.60;;
40072;SDS011;25774;52.256;9.356;2023-10-19T09:01:02;1.53;;;1.00;;
40072;SDS011;25774;52.256;9.356;2023-10-19T09:03:35;2.13;;;1.38;;
40072;SDS011;25774;52.256;9.356;2023-10-19T09:06:01;1.73;;;1.10;;
40072;SDS011;25774;52.256;9.356;2023-10-19T09:08:26;2.75;;;1.25;;
40072;SDS011;25774;52.256;9.356;2023-10-19T09:11:06;2.60;;;1.10;;
40072;SDS011;25774;52.256;9.356;2023-10-19T09:13:42;1.95;;;1.23;;
40072;SDS011;25774;52.256;9.356;2023-10-19T09:16:09;2.07;;;1.13;;
40072;SDS011;25774;52.256;9.356;2023-10-19T09:18:35;2.13;;;1.30;;
40072;SDS011;25774;52.256;9.356;2023-10-19T09:21:00;2.17;;;1.27;;
40072;SDS011;25774;52.256;9.356;2023-10-19T09:23:32;2.17;;;1.20;;
40072;SDS011;25774;52.256;9.356;2023-10-19T09:25:58;1.87;;;1.30;;
40072;SDS011;25774;52.256;9.356;2023-10-19T09:28:26;2.17;;;1.30;;
40072;SDS011;25774;52.256;9.356;2023-10-19T09:30:51;2.83;;;1.55;;
40072;SDS011;25774;52.256;9.356;2023-10-19T09:33:17;2.00;;;1.30;;
40072;SDS011;25774;52.256;9.356;2023-10-19T09:35:49;2.07;;;1.13;;
40072;SDS011;25774;52.256;9.356;2023-10-19T09:38:16;2.00;;;1.10;;
40072;SDS011;25774;52.256;9.356;2023-10-19T09:40:47;2.03;;;1.00;;
40072;SDS011;25774;52.256;9.356;2023-10-19T09:43:15;1.58;;;0.90;;
40072;SDS011;25774;52.256;9.356;2023-10-19T09:45:42;1.90;;;1.08;;
40072;SDS011;25774;52.256;9.356;2023-10-19T09:48:15;1.95;;;1.30;;
40072;SDS011;25774;52.256;9.356;2023-10-19T09:50:42;1.83;;;1.15;;
40072;SDS011;25774;52.256;9.356;2023-10-19T09:53:09;1.42;;;0.90;;
40072;SDS011;25774;52.256;9.356;2023-10-19T09:55:37;2.30;;;1.25;;
40072;SDS011;25774;52.256;9.356;2023-10-19T10:00:32;1.75;;;1.10;;
40072;SDS011;25774;52.256;9.356;2023-10-19T10:02:59;2.20;;;1.25;;
40072;SDS011;25774;52.256;9.356;2023-10-19T10:10:43;2.78;;;1.58;;
40072;SDS011;25774;52.256;9.356;2023-10-19T10:16:04;1.63;;;0.85;;
40072;SDS011;25774;52.256;9.356;2023-10-19T10:23:41;2.50;;;1.60;;
40072;SDS011;25774;52.256;9.356;2023-10-19T10:26:07;2.08;;;1.10;;
40072;SDS011;25774;52.256;9.356;2023-10-19T10:36:07;1.73;;;1.23;;
40072;SDS011;25774;52.256;9.356;2023-10-19T10:38:33;2.65;;;1.40;;
40072;SDS011;25774;52.256;9.356;2023-10-19T10:40:58;2.22;;;1.40;;
40072;SDS011;25774;52.256;9.356;2023-10-19T10:43:23;2.70;;;1.50;;
40072;SDS011;25774;52.256;9.356;2023-10-19T10:45:49;2.40;;;1.50;;
40072;SDS011;25774;52.256;9.356;2023-10-19T10:48:14;1.87;;;1.13;;
40072;SDS011;25774;52.256;9.356;2023-10-19T10:50:40;2.03;;;1.10;;
40072;SDS011;25774;52.256;9.356;2023-10-19T10:53:06;2.03;;;1.17;;
40072;SDS011;25774;52.256;9.356;2023-10-19T10:55:32;1.90;;;1.05;;
40072;SDS011;25774;52.256;9.356;2023-10-19T10:57:57;2.40;;;1.20;;
40072;SDS011;25774;52.256;9.356;2023-10-19T11:00:24;2.33;;;1.27;;
40072;SDS011;25774;52.256;9.356;2023-10-19T11:03:04;2.70;;;1.20;;
40072;SDS011;25774;52.256;9.356;2023-10-19T11:05:32;1.63;;;1.10;;
40072;SDS011;25774;52.256;9.356;2023-10-19T11:08:15;2.00;;;1.08;;
40072;SDS011;25774;52.256;9.356;2023-10-19T11:10:45;2.07;;;1.10;;
40072;SDS011;25774;52.256;9.356;2023-10-19T11:13:17;2.05;;;1.10;;
40072;SDS011;25774;52.256;9.356;2023-10-19T11:15:47;3.65;;;1.25;;
40072;SDS011;25774;52.256;9.356;2023-10-19T11:18:27;1.90;;;1.20;;
40072;SDS011;25774;52.256;9.356;2023-10-19T11:20:56;2.05;;;1.17;;
40072;SDS011;25774;52.256;9.356;2023-10-19T11:26:02;2.22;;;1.20;;
40072;SDS011;25774;52.256;9.356;2023-10-19T11:28:27;1.60;;;0.97;;
40072;SDS011;25774;52.256;9.356;2023-10-19T11:30:53;2.38;;;1.20;;
40072;SDS011;25774;52.256;9.356;2023-10-19T11:33:19;1.73;;;1.02;;
40072;SDS011;25774;52.256;9.356;2023-10-19T11:35:49;1.75;;;1.10;;
40072;SDS011;25774;52.256;9.356;2023-10-19T11:38:14;2.07;;;1.20;;
40072;SDS011;25774;52.256;9.356;2023-10-19T11:40:40;1.80;;;1.07;;
40072;SDS011;25774;52.256;9.356;2023-10-19T11:43:12;2.10;;;1.00;;
40072;SDS011;25774;52.256;9.356;2023-10-19T11:45:37;1.70;;;1.10;;
40072;SDS011;25774;52.256;9.356;2023-10-19T11:48:04;1.43;;;0.80;;
40072;SDS011;25774;52.256;9.356;2023-10-19T11:50:29;1.88;;;1.08;;
40072;SDS011;25774;52.256;9.356;2023-10-19T11:52:54;6.50;;;1.23;;
40072;SDS011;25774;52.256;9.356;2023-10-19T11:55:21;1.50;;;0.85;;
40072;SDS011;25774;52.256;9.356;2023-10-19T11:57:46;1.30;;;0.83;;
40072;SDS011;25774;52.256;9.356;2023-10-19T12:00:13;1.73;;;0.97;;
40072;SDS011;25774;52.256;9.356;2023-10-19T12:05:14;1.48;;;0.80;;
40072;SDS011;25774;52.256;9.356;2023-10-19T12:07:39;1.80;;;1.23;;
40072;SDS011;25774;52.256;9.356;2023-10-19T12:10:08;2.63;;;1.10;;
40072;SDS011;25774;52.256;9.356;2023-10-19T12:12:34;1.95;;;1.10;;
40072;SDS011;25774;52.256;9.356;2023-10-19T12:14:59;1.95;;;1.20;;
40072;SDS011;25774;52.256;9.356;2023-10-19T12:17:24;1.87;;;1.10;;
40072;SDS011;25774;52.256;9.356;2023-10-19T12:19:52;1.75;;;1.05;;
40072;SDS011;25774;52.256;9.356;2023-10-19T12:22:17;1.50;;;0.90;;
40072;SDS011;25774;52.256;9.356;2023-10-19T12:24:44;2.13;;;1.27;;
40072;SDS011;25774;52.256;9.356;2023-10-19T12:27:09;1.70;;;1.10;;
40072;SDS011;25774;52.256;9.356;2023-10-19T12:29:34;1.90;;;1.10;;
40072;SDS011;25774;52.256;9.356;2023-10-19T12:32:00;1.57;;;1.00;;
40072;SDS011;25774;52.256;9.356;2023-10-19T12:34:25;1.60;;;0.98;;
40072;SDS011;25774;52.256;9.356;2023-10-19T12:36:56;2.05;;;1.10;;
40072;SDS011;25774;52.256;9.356;2023-10-19T12:39:23;2.30;;;0.90;;
40072;SDS011;25774;52.256;9.356;2023-10-19T12:42:03;1.73;;;1.10;;
40072;SDS011;25774;52.256;9.356;2023-10-19T12:44:28;1.77;;;1.10;;
40072;SDS011;25774;52.256;9.356;2023-10-19T12:46:55;1.30;;;0.70;;
40072;SDS011;25774;52.256;9.356;2023-10-19T12:49:20;1.50;;;0.80;;
40072;SDS011;25774;52.256;9.356;2023-10-19T12:51:51;1.33;;;0.80;;
40072;SDS011;25774;52.256;9.356;2023-10-19T12:54:17;1.10;;;0.70;;
40072;SDS011;25774;52.256;9.356;2023-10-19T12:56:43;1.73;;;1.00;;
40072;SDS011;25774;52.256;9.356;2023-10-19T12:59:09;1.67;;;0.90;;
40072;SDS011;25774;52.256;9.356;2023-10-19T13:01:34;1.77;;;1.00;;
40072;SDS011;25774;52.256;9.356;2023-10-19T13:04:01;1.20;;;0.80;;
40072;SDS011;25774;52.256;9.356;2023-10-19T13:06:43;0.82;;;0.60;;
40072;SDS011;25774;52.256;9.356;2023-10-19T13:09:09;1.43;;;0.83;;
40072;SDS011;25774;52.256;9.356;2023-10-19T13:11:34;1.90;;;1.10;;
40072;SDS011;25774;52.256;9.356;2023-10-19T13:13:59;1.97;;;1.10;;
40072;SDS011;25774;52.256;9.356;2023-10-19T13:16:25;1.95;;;1.20;;
40072;SDS011;25774;52.256;9.356;2023-10-19T13:18:51;1.73;;;1.13;;
40072;SDS011;25774;52.256;9.356;2023-10-19T13:21:16;1.43;;;0.90;;
40072;SDS011;25774;52.256;9.356;2023-10-19T13:23:47;1.40;;;0.85;;
40072;SDS011;25774;52.256;9.356;2023-10-19T13:26:13;2.25;;;1.30;;
40072;SDS011;25774;52.256;9.356;2023-10-19T13:28:42;1.73;;;1.17;;
40072;SDS011;25774;52.256;9.356;2023-10-19T13:31:08;1.88;;;1.05;;
40072;SDS011;25774;52.256;9.356;2023-10-19T13:33:38;1.85;;;1.00;;
40072;SDS011;25774;52.256;9.356;2023-10-19T13:36:09;1.87;;;1.10;;
40072;SDS011;25774;52.256;9.356;2023-10-19T13:38:35;1.48;;;0.90;;
40072;SDS011;25774;52.256;9.356;2023-10-19T13:41:06;1.30;;;0.90;;
40072;SDS011;25774;52.256;9.356;2023-10-19T13:43:34;1.42;;;0.88;;
40072;SDS011;25774;52.256;9.356;2023-10-19T13:46:00;1.70;;;1.02;;
40072;SDS011;25774;52.256;9.356;2023-10-19T13:48:26;1.42;;;0.80;;
40072;SDS011;25774;52.256;9.356;2023-10-19T13:50:51;1.67;;;0.90;;
40072;SDS011;25774;52.256;9.356;2023-10-19T13:53:21;1.95;;;1.00;;
40072;SDS011;25774;52.256;9.356;2023-10-19T13:55:47;1.70;;;0.93;;
40072;SDS011;25774;52.256;9.356;2023-10-19T13:58:13;1.33;;;0.85;;
40072;SDS011;25774;52.256;9.356;2023-10-19T14:00:40;1.60;;;0.83;;
40072;SDS011;25774;52.256;9.356;2023-10-19T14:03:08;1.85;;;1.00;;
40072;SDS011;25774;52.256;9.356;2023-10-19T14:05:41;1.90;;;1.00;;
40072;SDS011;25774;52.256;9.356;2023-10-19T14:08:08;1.20;;;0.90;;
40072;SDS011;25774;52.256;9.356;2023-10-19T14:10:34;1.30;;;0.80;;
40072;SDS011;25774;52.256;9.356;2023-10-19T14:12:59;1.55;;;0.85;;
40072;SDS011;25774;52.256;9.356;2023-10-19T14:15:25;2.33;;;0.87;;
40072;SDS011;25774;52.256;9.356;2023-10-19T14:17:55;1.63;;;0.98;;
40072;SDS011;25774;52.256;9.356;2023-10-19T14:20:21;1.85;;;1.10;;
40072;SDS011;25774;52.256;9.356;2023-10-19T14:22:50;1.47;;;0.83;;
40072;SDS011;25774;52.256;9.356;2023-10-19T14:25:17;1.85;;;1.02;;
40072;SDS011;25774;52.256;9.356;2023-10-19T14:27:46;2.05;;;1.02;;
40072;SDS011;25774;52.256;9.356;2023-10-19T14:30:14;1.70;;;1.08;;
40072;SDS011;25774;52.256;9.356;2023-10-19T14:32:40;1.88;;;1.08;;
40072;SDS011;25774;52.256;9.356;2023-10-19T14:35:06;1.88;;;1.13;;
40072;SDS011;25774;52.256;9.356;2023-10-19T14:37:34;1.98;;;1.17;;
40072;SDS011;25774;52.256;9.356;2023-10-19T14:39:59;1.73;;;1.00;;
40072;SDS011;25774;52.256;9.356;2023-10-19T14:42:25;1.90;;;1.23;;
40072;SDS011;25774;52.256;9.356;2023-10-19T14:44:50;1.40;;;0.83;;
40072;SDS011;25774;52.256;9.356;2023-10-19T14:47:16;2.53;;;1.37;;
40072;SDS011;25774;52.256;9.356;2023-10-19T14:49:42;2.67;;;1.27;;
40072;SDS011;25774;52.256;9.356;2023-10-19T14:54:32;1.90;;;1.23;;
40072;SDS011;25774;52.256;9.356;2023-10-19T14:56:59;3.92;;;1.48;;
40072;SDS011;25774;52.256;9.356;2023-10-19T15:01:50;2.92;;;1.60;;
40072;SDS011;25774;52.256;9.356;2023-10-19T15:04:18;3.00;;;1.88;;
40072;SDS011;25774;52.256;9.356;2023-10-19T15:06:43;3.20;;;2.00;;
40072;SDS011;25774;52.256;9.356;2023-10-19T15:09:08;3.83;;;1.70;;
40072;SDS011;25774;52.256;9.356;2023-10-19T15:11:39;2.70;;;1.60;;
40072;SDS011;25774;52.256;9.356;2023-10-19T15:14:05;2.57;;;1.53;;
40072;SDS011;25774;52.256;9.356;2023-10-19T15:16:30;2.53;;;1.80;;
40072;SDS011;25774;52.256;9.356;2023-10-19T15:18:57;3.22;;;1.85;;
40072;SDS011;25774;52.256;9.356;2023-10-19T15:21:23;2.47;;;1.55;;
40072;SDS011;25774;52.256;9.356;2023-10-19T15:23:48;2.23;;;1.40;;
40072;SDS011;25774;52.256;9.356;2023-10-19T15:26:18;2.90;;;1.80;;
40072;SDS011;25774;52.256;9.356;2023-10-19T15:28:43;3.88;;;2.10;;
40072;SDS011;25774;52.256;9.356;2023-10-19T15:31:09;2.87;;;1.83;;
40072;SDS011;25774;52.256;9.356;2023-10-19T15:36:00;3.90;;;1.97;;
40072;SDS011;25774;52.256;9.356;2023-10-19T15:38:25;3.27;;;2.00;;
40072;SDS011;25774;52.256;9.356;2023-10-19T15:40:50;3.23;;;1.90;;
40072;SDS011;25774;52.256;9.356;2023-10-19T15:43:16;3.10;;;1.97;;
40072;SDS011;25774;52.256;9.356;2023-10-19T15:45:42;4.33;;;2.57;;
40072;SDS011;25774;52.256;9.356;2023-10-19T15:48:09;3.42;;;2.25;;
40072;SDS011;25774;52.256;9.356;2023-10-19T15:50:37;3.95;;;2.20;;
40072;SDS011;25774;52.256;9.356;2023-10-19T15:53:03;4.18;;;2.63;;